Terminal Aerodrome Forecast
Issued by NWS

Home | Current Version | Previous Version | Graphics & Text | Print | Product List | Glossary On
Versions: 1 2 3 4 5 6 7 8 9 10 11 12 13 14 15 16 17 18 19 20 21 22 23 24 25 26
825
FTUS43 KBIS 242322
TAFJMS
TAF
KJMS 242322Z 2500/2524 06009KT P6SM OVC014
     FM250500 12005KT 6SM BR OVC012
     FM251000 14007KT 3SM BR OVC010
     FM251600 16012KT 4SM BR SCT025
     FM251700 16012G20KT P6SM FEW040=

USA.gov is the U.S. government's official web portal to all federal, state and local government web resources and services.